Time;durP1;ratioP1;P1;durP2;ratioP2;P2;SDS_P1;SDS_P2;PMS_P1;PMS_P2;Temp;Humidity;BMP_temperature;BMP_pressure;BME280_temperature;BME280_humidity;BME280_pressure;Samples;Min_cycle;Max_cycle;Signal;HPM_P1;HPM_P2
2021/08/08 00:02:12;;;;;;;3.97;2.63;;;;;;;14.97;72.45;99264.09;5063257;28;20027;-68
2021/08/08 00:04:37;;;;;;;3.55;2.42;;;;;;;14.93;72.80;99267.75;5063058;28;20080;-68
2021/08/08 00:07:03;;;;;;;3.65;2.60;;;;;;;14.85;73.13;99268.97;5063001;28;20017;-68
2021/08/08 00:09:28;;;;;;;5.07;2.50;;;;;;;14.83;73.28;99267.31;5063085;28;20381;-67
2021/08/08 00:11:54;;;;;;;5.25;2.63;;;;;;;14.77;73.37;99268.44;5062781;28;20029;-67
2021/08/08 00:14:19;;;;;;;3.55;2.45;;;;;;;14.70;73.92;99269.59;5063117;28;20025;-68
2021/08/08 00:16:45;;;;;;;4.93;2.60;;;;;;;14.72;73.69;99268.63;5061542;28;20025;-66
2021/08/08 00:19:10;;;;;;;6.20;2.78;;;;;;;14.65;73.90;99264.56;5061608;28;20036;-68
2021/08/08 00:21:36;;;;;;;7.63;3.10;;;;;;;14.60;73.79;99264.78;5062675;28;20388;-68
2021/08/08 00:24:01;;;;;;;6.43;2.80;;;;;;;14.58;73.92;99260.56;5063137;28;20044;-68
2021/08/08 00:26:27;;;;;;;6.50;2.90;;;;;;;14.54;74.00;99257.22;5062972;28;20025;-67
2021/08/08 00:28:52;;;;;;;4.32;2.75;;;;;;;14.51;74.18;99257.34;5062703;28;20021;-68
2021/08/08 00:31:23;;;;;;;4.78;2.70;;;;;;;14.51;74.06;99257.34;5062833;28;20496;-68
2021/08/08 00:33:50;;;;;;;4.65;3.22;;;;;;;14.46;74.27;99254.94;5062973;28;20021;-68
2021/08/08 00:36:15;;;;;;;5.40;2.85;;;;;;;14.45;74.18;99257.63;5062785;28;20025;-67
2021/08/08 00:38:41;;;;;;;3.53;2.55;;;;;;;14.42;74.58;99262.97;5062652;28;20067;-68
2021/08/08 00:41:06;;;;;;;3.70;3.22;;;;;;;14.42;74.93;99265.59;5062916;28;20025;-68
2021/08/08 00:43:31;;;;;;;5.50;3.15;;;;;;;14.37;75.10;99261.41;5062420;28;20092;-66
2021/08/08 00:45:57;;;;;;;7.47;3.17;;;;;;;14.35;75.10;99259.78;5062688;28;20024;-68
2021/08/08 00:48:22;;;;;;;4.10;2.85;;;;;;;14.38;75.26;99262.25;5062664;28;20059;-68
2021/08/08 00:50:47;;;;;;;5.13;3.10;;;;;;;14.38;75.41;99267.47;5062585;28;20025;-67
2021/08/08 00:53:13;;;;;;;6.22;2.97;;;;;;;14.40;75.53;99262.19;5063112;28;20055;-68
2021/08/08 00:55:38;;;;;;;4.75;3.28;;;;;;;14.34;75.65;99253.72;5065167;28;20032;-67
2021/08/08 00:58:04;;;;;;;4.03;2.95;;;;;;;14.30;75.72;99251.28;5066207;28;20521;-68
2021/08/08 01:00:29;;;;;;;9.55;3.83;;;;;;;14.22;75.70;99243.78;5066321;28;20032;-68
2021/08/08 01:03:01;;;;;;;7.72;3.95;;;;;;;14.20;75.74;99245.63;5066226;28;20085;-68
2021/08/08 01:05:33;;;;;;;4.03;3.50;;;;;;;14.18;75.71;99242.22;5066367;28;20028;-67
2021/08/08 01:08:04;;;;;;;5.78;3.83;;;;;;;14.16;75.72;99241.44;5066369;28;20029;-68
2021/08/08 01:10:32;;;;;;;3.97;3.53;;;;;;;14.13;75.87;99226.75;5066179;28;20025;-67
2021/08/08 01:12:58;;;;;;;4.97;3.72;;;;;;;14.12;75.96;99228.50;5064617;28;20048;-68
2021/08/08 01:15:23;;;;;;;6.38;4.50;;;;;;;14.09;75.85;99231.25;5066167;28;20036;-68
2021/08/08 01:17:50;;;;;;;4.97;3.67;;;;;;;14.09;75.70;99230.41;5065811;28;20029;-67
2021/08/08 01:20:16;;;;;;;7.85;4.63;;;;;;;14.05;75.96;99232.31;5066063;28;20356;-68
2021/08/08 01:22:48;;;;;;;5.82;4.10;;;;;;;14.03;75.64;99234.13;5066244;28;20029;-68
2021/08/08 01:25:14;;;;;;;6.05;4.47;;;;;;;14.01;75.72;99238.53;5065917;28;20031;-68
2021/08/08 01:27:40;;;;;;;7.50;4.53;;;;;;;13.99;76.10;99238.59;5065671;28;20053;-68
2021/08/08 01:30:07;;;;;;;5.25;4.38;;;;;;;13.94;75.96;99231.91;5065793;28;20024;-68
2021/08/08 01:32:33;;;;;;;5.10;3.92;;;;;;;13.93;76.21;99233.66;5065906;28;20035;-68
2021/08/08 01:35:00;;;;;;;5.15;3.45;;;;;;;13.88;76.28;99233.84;5065828;28;20021;-67
2021/08/08 01:37:25;;;;;;;5.90;3.80;;;;;;;13.89;76.50;99237.31;5065815;28;20017;-67
2021/08/08 01:39:56;;;;;;;6.10;4.72;;;;;;;13.86;76.56;99238.28;5065467;28;20049;-67
2021/08/08 01:42:23;;;;;;;7.10;4.77;;;;;;;13.89;76.49;99239.91;5065384;28;20028;-67
2021/08/08 01:44:51;;;;;;;7.05;4.15;;;;;;;13.85;76.49;99227.91;5064217;28;20024;-67
2021/08/08 01:47:23;;;;;;;4.88;4.00;;;;;;;13.87;76.42;99239.13;5065384;28;20021;-67
2021/08/08 01:49:50;;;;;;;6.82;4.22;;;;;;;13.86;76.43;99242.66;5065435;28;20508;-66
2021/08/08 01:52:16;;;;;;;4.85;4.05;;;;;;;13.86;76.49;99253.09;5065344;28;20033;-66
2021/08/08 01:54:41;;;;;;;6.40;4.60;;;;;;;13.85;76.68;99254.84;5063870;28;20025;-68
2021/08/08 01:57:08;;;;;;;6.93;3.92;;;;;;;13.85;76.77;99241.78;5063737;28;20047;-67
2021/08/08 01:59:34;;;;;;;5.75;4.05;;;;;;;13.81;76.97;99235.00;5064967;28;20044;-67
2021/08/08 02:02:09;;;;;;;4.47;3.85;;;;;;;13.86;76.70;99243.50;5065085;28;20473;-68
2021/08/08 02:04:35;;;;;;;7.88;3.85;;;;;;;13.82;76.76;99223.66;5063489;28;20020;-68
2021/08/08 02:07:01;;;;;;;5.65;3.42;;;;;;;13.87;76.83;99234.75;5064790;28;20040;-68
2021/08/08 02:09:26;;;;;;;4.82;3.67;;;;;;;13.91;77.00;99234.63;5065057;28;20017;-68
2021/08/08 02:11:52;;;;;;;5.28;3.67;;;;;;;13.91;76.98;99225.06;5064913;28;20057;-67
2021/08/08 02:14:17;;;;;;;5.05;3.70;;;;;;;13.94;77.15;99229.28;5063581;28;20047;-67
2021/08/08 02:16:42;;;;;;;6.55;3.42;;;;;;;13.97;77.27;99223.94;5064858;28;20065;-69
2021/08/08 02:19:08;;;;;;;6.70;3.70;;;;;;;13.98;77.11;99223.88;5064994;28;20477;-69
2021/08/08 02:21:33;;;;;;;4.55;3.78;;;;;;;13.99;77.12;99222.13;5064840;28;20017;-69
2021/08/08 02:23:58;;;;;;;4.65;3.97;;;;;;;14.00;77.23;99223.81;5064791;28;20033;-68
2021/08/08 02:26:24;;;;;;;7.22;3.50;;;;;;;14.04;77.36;99224.53;5064640;28;20146;-75
2021/08/08 02:28:50;;;;;;;7.40;3.53;;;;;;;14.03;77.28;99223.69;5063210;28;20020;-75
2021/08/08 02:31:18;;;;;;;6.28;3.70;;;;;;;14.09;77.38;99233.03;5064545;28;20441;-75
2021/08/08 02:33:46;;;;;;;4.30;3.40;;;;;;;14.09;77.31;99233.03;5064742;28;20028;-74
2021/08/08 02:36:12;;;;;;;5.68;3.75;;;;;;;14.08;77.51;99232.16;5064468;28;20520;-75
2021/08/08 02:38:37;;;;;;;4.22;3.83;;;;;;;14.10;77.47;99235.56;5062862;28;20045;-75
2021/08/08 02:41:03;;;;;;;4.05;3.10;;;;;;;14.12;77.44;99238.94;5062894;28;20056;-75
2021/08/08 02:43:28;;;;;;;6.45;3.17;;;;;;;14.11;77.37;99237.25;5064122;28;20658;-76
2021/08/08 02:45:53;;;;;;;6.85;3.50;;;;;;;14.03;77.73;99243.69;5063877;28;20091;-76
2021/08/08 02:48:19;;;;;;;4.70;3.80;;;;;;;13.97;77.56;99237.84;5062812;28;20459;-75
2021/08/08 02:50:44;;;;;;;5.13;4.03;;;;;;;13.95;77.77;99236.19;5064139;28;20024;-75
2021/08/08 02:53:10;;;;;;;5.75;3.53;;;;;;;13.94;77.92;99229.28;5064330;28;20024;-75
2021/08/08 02:55:35;;;;;;;4.18;3.40;;;;;;;13.90;78.04;99222.50;5062910;28;20029;-75
2021/08/08 02:58:00;;;;;;;6.88;3.38;;;;;;;13.88;78.22;99225.19;5063839;28;20043;-76
2021/08/08 03:00:26;;;;;;;5.55;3.60;;;;;;;13.91;78.41;99218.97;5063846;28;20032;-76
2021/08/08 03:02:51;;;;;;;5.53;3.47;;;;;;;13.87;78.47;99223.47;5064093;28;20119;-76
2021/08/08 03:05:17;;;;;;;3.80;3.05;;;;;;;13.91;78.52;99218.97;5062590;28;20025;-75
2021/08/08 03:07:43;;;;;;;6.40;3.75;;;;;;;13.92;78.32;99220.66;5063943;28;20035;-74
2021/08/08 03:10:09;;;;;;;4.65;3.58;;;;;;;13.94;78.34;99224.06;5063800;28;20025;-75
2021/08/08 03:12:34;;;;;;;4.85;3.53;;;;;;;13.93;78.31;99225.00;5062302;28;20037;-75
2021/08/08 03:15:00;;;;;;;5.32;3.40;;;;;;;13.92;78.40;99231.09;5063774;28;20099;-76
2021/08/08 03:17:26;;;;;;;6.18;3.28;;;;;;;13.92;78.56;99226.75;5062692;28;20025;-76
2021/08/08 03:19:51;;;;;;;5.40;3.90;;;;;;;13.94;78.50;99224.94;5063780;28;20024;-75
2021/08/08 03:22:17;;;;;;;6.07;3.33;;;;;;;13.94;78.57;99218.84;5062183;28;20036;-75
2021/08/08 03:24:42;;;;;;;7.15;4.10;;;;;;;13.86;78.67;99211.34;5062190;28;20398;-75
2021/08/08 03:27:08;;;;;;;4.18;3.72;;;;;;;13.86;78.57;99214.81;5061675;28;20311;-75
2021/08/08 03:29:34;;;;;;;5.38;3.97;;;;;;;13.82;78.44;99215.81;5062411;28;20057;-75
2021/08/08 03:31:59;;;;;;;5.75;3.90;;;;;;;13.77;78.72;99212.56;5061753;28;20446;-75
2021/08/08 03:34:25;;;;;;;7.65;4.60;;;;;;;13.79;78.43;99218.56;5063536;28;20374;-76
2021/08/08 03:36:51;;;;;;;5.38;4.10;;;;;;;13.77;78.41;99215.16;5063266;28;20036;-75
2021/08/08 03:39:20;;;;;;;7.90;4.10;;;;;;;13.80;78.31;99217.63;5063222;28;20055;-75
2021/08/08 03:41:45;;;;;;;7.35;4.75;;;;;;;13.83;78.11;99225.38;5061739;28;20025;-74
2021/08/08 03:44:10;;;;;;;9.05;4.00;;;;;;;13.85;77.90;99223.53;5063205;28;20033;-76
2021/08/08 03:46:36;;;;;;;6.88;3.72;;;;;;;13.94;78.01;99224.06;5061709;28;20017;-75
2021/08/08 03:49:01;;;;;;;5.25;3.85;;;;;;;14.08;78.53;99221.72;5061806;28;20542;-76
2021/08/08 03:51:27;;;;;;;4.22;3.65;;;;;;;14.18;77.99;99226.56;5061859;28;20384;-77
2021/08/08 03:53:52;;;;;;;5.97;3.75;;;;;;;14.23;78.00;99219.38;5063126;28;20072;-76
2021/08/08 03:56:17;;;;;;;5.80;3.03;;;;;;;14.35;77.51;99226.69;5061799;28;20028;-75
2021/08/08 03:58:43;;;;;;;4.88;2.85;;;;;;;14.42;77.19;99221.19;5062878;28;20029;-75
2021/08/08 04:01:08;;;;;;;5.78;3.47;;;;;;;14.35;76.82;99229.28;5063133;28;20028;-75
2021/08/08 04:03:35;;;;;;;3.65;3.30;;;;;;;14.23;76.81;99215.00;5062999;28;20025;-78
2021/08/08 04:06:01;;;;;;;5.47;3.35;;;;;;;14.13;77.24;99222.41;5063021;28;20044;-75
2021/08/08 04:08:26;;;;;;;4.03;3.15;;;;;;;14.03;77.47;99210.63;5063122;28;20025;-76
2021/08/08 04:10:52;;;;;;;5.00;3.33;;;;;;;14.03;77.68;99218.47;5063023;28;20389;-76
2021/08/08 04:13:18;;;;;;;5.10;4.13;;;;;;;13.96;77.83;99202.19;5062878;28;20032;-76
2021/08/08 04:15:44;;;;;;;4.68;3.15;;;;;;;14.04;78.03;99217.53;5062987;28;20021;-76
2021/08/08 04:18:12;;;;;;;5.53;2.97;;;;;;;14.27;78.42;99220.09;5062990;28;20021;-76
2021/08/08 04:20:37;;;;;;;4.53;2.97;;;;;;;14.63;77.96;99216.81;5061579;28;20029;-76
2021/08/08 04:23:03;;;;;;;3.03;2.72;;;;;;;15.02;77.69;99212.47;5062806;28;20032;-76
2021/08/08 04:25:28;;;;;;;5.00;3.00;;;;;;;15.49;76.74;99216.34;5062034;28;20513;-76
2021/08/08 04:27:54;;;;;;;4.60;2.72;;;;;;;15.85;76.09;99204.19;5062102;28;20028;-76
2021/08/08 04:30:19;;;;;;;4.40;3.00;;;;;;;16.26;75.63;99190.88;5067440;28;20033;-77
2021/08/08 04:32:45;;;;;;;4.47;2.85;;;;;;;16.90;74.83;99208.50;5065636;28;20044;-77
2021/08/08 04:35:10;;;;;;;4.13;3.03;;;;;;;17.22;73.31;99209.38;5065553;28;20333;-77
2021/08/08 04:37:35;;;;;;;4.07;2.95;;;;;;;17.20;70.99;99218.28;5066615;28;20393;-76
2021/08/08 04:40:01;;;;;;;5.30;2.95;;;;;;;16.94;69.49;99212.63;5065145;28;20191;-77
2021/08/08 04:42:26;;;;;;;3.72;3.15;;;;;;;16.66;70.09;99214.97;5066668;28;20024;-75
2021/08/08 04:44:51;;;;;;;5.93;3.35;;;;;;;16.45;69.69;99206.47;5065302;28;20091;-76
2021/08/08 04:47:17;;;;;;;4.65;2.92;;;;;;;16.15;69.81;99205.34;5066618;28;20500;-76
2021/08/08 04:49:42;;;;;;;4.75;3.45;;;;;;;15.83;70.37;99211.25;5066581;28;20036;-76
2021/08/08 04:52:07;;;;;;;4.90;3.15;;;;;;;15.57;70.99;99215.16;5065161;28;20032;-77
2021/08/08 04:54:33;;;;;;;4.22;2.90;;;;;;;15.40;71.77;99218.59;5066424;28;20498;-76
2021/08/08 04:56:58;;;;;;;3.78;2.85;;;;;;;15.19;72.37;99213.47;5064939;28;20025;-76
2021/08/08 04:59:24;;;;;;;4.40;3.17;;;;;;;15.04;73.26;99202.78;5066714;28;20077;-76
2021/08/08 05:01:49;;;;;;;5.78;3.35;;;;;;;14.97;73.72;99204.84;5065185;28;20024;-76
2021/08/08 05:04:14;;;;;;;4.53;3.40;;;;;;;14.90;74.06;99206.06;5066333;28;20029;-76
2021/08/08 05:06:40;;;;;;;6.88;3.50;;;;;;;14.89;74.25;99208.72;5066305;28;20036;-75
2021/08/08 05:09:05;;;;;;;7.50;3.63;;;;;;;14.82;74.38;99198.56;5066334;28;20028;-75
2021/08/08 05:11:31;;;;;;;4.57;3.65;;;;;;;14.81;74.86;99206.47;5064933;28;20058;-77
2021/08/08 05:13:58;;;;;;;6.07;3.42;;;;;;;14.71;74.83;99198.16;5066020;28;20104;-75
2021/08/08 05:16:24;;;;;;;5.10;3.80;;;;;;;14.70;75.28;99196.47;5065935;28;20021;-74
2021/08/08 05:18:49;;;;;;;5.63;3.17;;;;;;;14.65;75.63;99198.44;5064622;28;20021;-74
2021/08/08 05:21:14;;;;;;;4.40;3.45;;;;;;;14.66;75.58;99201.00;5064666;28;20021;-75
2021/08/08 05:23:40;;;;;;;4.47;3.65;;;;;;;14.65;75.82;99201.06;5065939;28;20017;-75
2021/08/08 05:26:05;;;;;;;7.22;3.85;;;;;;;14.65;76.02;99203.66;5065867;28;20020;-75
2021/08/08 05:28:31;;;;;;;4.68;3.40;;;;;;;14.65;76.10;99201.06;5065876;28;20115;-76
2021/08/08 05:30:56;;;;;;;4.50;3.63;;;;;;;14.63;76.39;99206.34;5065825;28;20045;-76
2021/08/08 05:33:21;;;;;;;6.80;3.92;;;;;;;14.62;76.18;99205.50;5065808;28;20035;-76
2021/08/08 05:35:48;;;;;;;4.15;3.65;;;;;;;14.68;76.23;99214.81;5064461;28;20429;-76
2021/08/08 05:38:14;;;;;;;4.90;3.80;;;;;;;14.67;76.49;99214.88;5065556;28;20056;-76
2021/08/08 05:40:40;;;;;;;8.75;4.20;;;;;;;14.66;76.72;99214.06;5064661;28;20511;-75
2021/08/08 05:43:05;;;;;;;4.07;3.67;;;;;;;14.70;77.06;99204.28;5064079;28;20024;-76
2021/08/08 05:45:31;;;;;;;4.95;4.00;;;;;;;14.73;76.67;99194.56;5065531;28;20112;-77
2021/08/08 05:47:57;;;;;;;5.20;4.05;;;;;;;15.00;76.46;99216.91;5065299;28;20033;-76
2021/08/08 05:50:23;;;;;;;6.57;4.53;;;;;;;15.04;76.27;99213.25;5065511;28;20126;-75
2021/08/08 05:52:50;;;;;;;4.60;3.50;;;;;;;15.15;76.00;99223.19;5063870;28;20474;-76
2021/08/08 05:55:16;;;;;;;8.73;4.78;;;;;;;15.19;76.23;99223.91;5063804;28;20017;-75
2021/08/08 05:57:41;;;;;;;3.80;3.45;;;;;;;15.30;76.88;99216.41;5065229;28;20071;-76
2021/08/08 06:00:07;;;;;;;7.97;3.65;;;;;;;15.69;77.33;99208.47;5065163;28;20552;-76
2021/08/08 06:02:32;;;;;;;5.03;4.05;;;;;;;16.06;76.13;99217.16;5065152;28;20025;-76
2021/08/08 06:04:57;;;;;;;7.03;3.88;;;;;;;16.37;75.07;99217.34;5063823;28;20032;-77
2021/08/08 06:07:23;;;;;;;4.15;3.58;;;;;;;16.63;74.86;99232.63;5065090;28;20052;-76
2021/08/08 06:09:48;;;;;;;5.53;4.28;;;;;;;16.83;73.06;99224.56;5063570;28;20032;-77
2021/08/08 06:12:13;;;;;;;5.60;3.55;;;;;;;16.92;73.14;99225.81;5063491;28;20021;-76
2021/08/08 06:14:39;;;;;;;7.85;4.90;;;;;;;17.11;71.49;99232.72;5063628;28;20028;-77
2021/08/08 06:17:04;;;;;;;9.55;5.28;;;;;;;17.02;71.47;99228.81;5063389;28;20085;-77
2021/08/08 06:19:30;;;;;;;5.95;4.32;;;;;;;16.89;72.23;99215.50;5064929;28;20025;-75
2021/08/08 06:21:55;;;;;;;7.65;4.53;;;;;;;16.91;72.91;99215.44;5064340;28;20067;-75
2021/08/08 06:24:20;;;;;;;6.35;5.10;;;;;;;17.02;72.47;99209.59;5064682;28;20035;-74
2021/08/08 06:26:46;;;;;;;5.47;4.90;;;;;;;17.15;72.19;99217.66;5064702;28;20040;-75
2021/08/08 06:29:11;;;;;;;9.65;5.05;;;;;;;17.23;71.96;99215.47;5064431;28;20056;-75
2021/08/08 06:31:36;;;;;;;9.70;5.20;;;;;;;17.37;71.50;99205.97;5064611;28;20080;-75
2021/08/08 06:34:02;;;;;;;7.57;4.80;;;;;;;17.54;71.64;99208.50;5064529;28;20028;-75
2021/08/08 06:36:28;;;;;;;5.43;4.45;;;;;;;17.76;71.29;99207.28;5064101;28;20035;-76
2021/08/08 06:38:59;;;;;;;6.70;4.40;;;;;;;17.95;71.45;99201.81;5062732;28;20374;-75
2021/08/08 06:41:24;;;;;;;10.73;5.38;;;;;;;18.20;70.43;99202.13;5062985;28;20049;-77
2021/08/08 06:43:50;;;;;;;7.40;4.22;;;;;;;18.36;70.19;99199.44;5064067;28;20024;-76
2021/08/08 06:46:15;;;;;;;7.80;4.88;;;;;;;18.54;69.68;99205.38;5064274;28;20358;-76
2021/08/08 06:48:41;;;;;;;9.60;4.05;;;;;;;18.91;69.76;99209.28;5064309;28;20056;-77
2021/08/08 06:51:06;;;;;;;8.05;4.65;;;;;;;19.33;68.60;99198.78;5062653;28;20025;-75
2021/08/08 06:53:32;;;;;;;8.73;4.28;;;;;;;19.79;67.50;99202.81;5062843;28;20120;-77
2021/08/08 06:56:00;;;;;;;5.88;3.83;;;;;;;20.34;66.73;99193.09;5064002;28;20044;-77
2021/08/08 06:58:25;;;;;;;4.90;4.00;;;;;;;21.06;62.53;99196.91;5063922;28;20104;-74
2021/08/08 07:00:51;;;;;;;10.18;4.90;;;;;;;21.05;61.59;99206.59;5064133;28;20028;-77
2021/08/08 07:03:16;;;;;;;7.07;4.40;;;;;;;21.00;60.69;99210.53;5064088;28;20040;-76
2021/08/08 07:05:41;;;;;;;8.93;4.45;;;;;;;20.86;61.65;99216.75;5063994;28;20029;-76
2021/08/08 07:08:07;;;;;;;5.80;4.13;;;;;;;20.71;62.06;99213.41;5064079;28;20024;-77
2021/08/08 07:10:32;;;;;;;7.78;3.83;;;;;;;20.65;61.88;99226.09;5062697;28;20025;-77
2021/08/08 07:12:58;;;;;;;7.82;4.40;;;;;;;20.33;61.55;99220.41;5062332;28;20025;-78
2021/08/08 07:15:24;;;;;;;6.05;4.90;;;;;;;19.84;62.68;99235.91;5063870;28;20028;-76
2021/08/08 07:17:49;;;;;;;7.47;4.20;;;;;;;19.42;63.97;99231.56;5062252;28;20021;-75
2021/08/08 07:20:14;;;;;;;8.20;5.10;;;;;;;18.80;65.62;99231.81;5062467;28;20029;-75
2021/08/08 07:22:40;;;;;;;5.65;5.03;;;;;;;18.47;67.11;99232.94;5063642;28;20086;-75
2021/08/08 07:25:06;;;;;;;7.65;4.53;;;;;;;18.35;67.74;99223.19;5062233;28;20017;-76
2021/08/08 07:27:31;;;;;;;7.43;4.55;;;;;;;18.22;68.09;99234.44;5064424;28;20017;-75
2021/08/08 07:29:57;;;;;;;5.70;4.53;;;;;;;18.20;68.37;99239.78;5063811;28;20495;-76
2021/08/08 07:32:22;;;;;;;7.20;4.82;;;;;;;17.96;69.32;99231.50;5064465;28;20020;-75
2021/08/08 07:34:47;;;;;;;7.45;4.70;;;;;;;17.78;69.67;99251.81;5063609;28;20020;-75
2021/08/08 07:37:13;;;;;;;6.68;5.40;;;;;;;17.65;70.00;99243.78;5063436;28;20101;-77
2021/08/08 07:39:38;;;;;;;7.20;5.18;;;;;;;17.56;70.29;99251.25;5063532;28;20040;-75
2021/08/08 07:42:04;;;;;;;6.05;4.47;;;;;;;17.50;71.14;99256.84;5063180;28;20025;-75
2021/08/08 07:44:29;;;;;;;7.43;4.38;;;;;;;17.57;71.11;99255.56;5062313;28;20017;-76
2021/08/08 07:46:54;;;;;;;5.13;4.45;;;;;;;17.75;71.17;99241.50;5061909;28;20584;-77
2021/08/08 07:49:20;;;;;;;7.28;4.60;;;;;;;18.01;70.99;99247.84;5063489;28;20020;-76
2021/08/08 07:51:45;;;;;;;5.97;4.22;;;;;;;18.28;70.08;99243.72;5063575;28;20100;-77
2021/08/08 07:54:11;;;;;;;5.95;4.15;;;;;;;18.69;69.70;99242.19;5063294;28;20033;-77
2021/08/08 07:56:36;;;;;;;6.32;3.65;;;;;;;19.22;69.33;99244.19;5063088;28;20033;-77
2021/08/08 07:59:02;;;;;;;7.43;3.85;;;;;;;19.93;67.92;99248.47;5062242;28;20056;-78
2021/08/08 08:01:27;;;;;;;8.55;3.78;;;;;;;20.94;66.11;99248.75;5064583;28;20091;-78
2021/08/08 08:03:52;;;;;;;5.75;3.53;;;;;;;21.48;63.57;99241.41;5063035;28;20035;-78
2021/08/08 08:06:18;;;;;;;6.20;3.53;;;;;;;21.83;62.17;99252.16;5064161;28;20104;-78
2021/08/08 08:08:43;;;;;;;4.00;3.60;;;;;;;21.65;59.34;99250.72;5063283;28;20021;-78
2021/08/08 08:11:09;;;;;;;6.97;3.17;;;;;;;21.29;60.77;99255.94;5063453;28;20096;-77
2021/08/08 08:13:35;;;;;;;7.50;3.38;;;;;;;21.17;61.29;99259.44;5061532;28;20017;-74
2021/08/08 08:16:00;;;;;;;7.22;4.05;;;;;;;20.92;60.68;99256.78;5062968;28;20029;-72
2021/08/08 08:18:25;;;;;;;8.80;4.05;;;;;;;20.64;61.39;99253.38;5063173;28;20032;-74
2021/08/08 08:20:51;;;;;;;5.78;3.33;;;;;;;20.50;61.66;99253.50;5061736;28;20029;-72
2021/08/08 08:23:16;;;;;;;4.78;2.97;;;;;;;20.51;62.73;99253.38;5062765;28;20029;-74
2021/08/08 08:25:43;;;;;;;4.32;3.03;;;;;;;20.98;62.40;99250.22;5062879;28;20024;-73
2021/08/08 08:28:12;;;;;;;4.50;2.50;;;;;;;21.83;60.67;99255.63;5062650;28;20025;-74
2021/08/08 08:30:37;;;;;;;4.22;2.75;;;;;;;22.61;58.69;99257.75;5062930;28;20074;-73
2021/08/08 08:33:04;;;;;;;5.78;2.90;;;;;;;23.15;57.53;99244.75;5062983;28;20112;-71
2021/08/08 08:35:29;;;;;;;5.18;2.60;;;;;;;23.32;55.51;99252.28;5061469;28;20067;-73
2021/08/08 08:37:55;;;;;;;4.13;2.75;;;;;;;23.14;55.98;99253.66;5061487;28;20454;-70
2021/08/08 08:40:20;;;;;;;4.20;3.10;;;;;;;23.00;55.79;99246.78;5062899;28;20017;-72
2021/08/08 08:42:50;;;;;;;7.53;2.92;;;;;;;22.72;55.80;99246.34;5062655;28;20450;-74
2021/08/08 08:45:17;;;;;;;6.55;3.20;;;;;;;22.36;56.15;99249.06;5062783;28;20056;-72
2021/08/08 08:47:45;;;;;;;7.18;3.30;;;;;;;21.99;56.78;99246.56;5063031;28;20088;-71
2021/08/08 08:50:12;;;;;;;4.05;3.22;;;;;;;21.54;57.62;99245.38;5062771;28;20065;-69
2021/08/08 08:52:37;;;;;;;8.88;3.20;;;;;;;21.31;58.13;99253.19;5062688;28;20108;-70
2021/08/08 08:55:03;;;;;;;5.78;2.60;;;;;;;21.07;58.16;99258.44;5062912;28;20184;-73
2021/08/08 08:57:29;;;;;;;3.50;2.63;;;;;;;20.84;58.43;99253.81;5062589;28;20148;-72
2021/08/08 08:59:55;;;;;;;4.40;2.45;;;;;;;20.62;59.38;99265.00;5062539;28;20021;-70
2021/08/08 09:02:20;;;;;;;6.65;3.20;;;;;;;20.44;60.28;99273.22;5061453;28;20044;-69
2021/08/08 09:04:46;;;;;;;8.75;3.70;;;;;;;20.13;61.28;99273.50;5062666;28;20021;-69
2021/08/08 09:07:11;;;;;;;8.63;4.03;;;;;;;19.76;63.09;99289.06;5062698;28;20473;-71
2021/08/08 09:09:37;;;;;;;13.95;5.68;;;;;;;19.18;65.80;99274.28;5062597;28;20465;-72
2021/08/08 09:12:03;;;;;;;11.75;6.47;;;;;;;18.67;67.80;99267.69;5062581;28;20088;-72
2021/08/08 09:14:32;;;;;;;12.63;6.90;;;;;;;18.27;70.43;99274.41;5062442;28;20025;-71
2021/08/08 09:16:58;;;;;;;12.45;6.45;;;;;;;17.93;72.65;99282.44;5065199;28;20097;-70
2021/08/08 09:19:29;;;;;;;11.15;6.35;;;;;;;17.74;74.57;99295.75;5065939;28;20017;-69
2021/08/08 09:21:55;;;;;;;9.30;6.75;;;;;;;17.69;75.03;99292.53;5066157;28;20545;-69
2021/08/08 09:24:35;;;;;;;9.73;7.28;;;;;;;17.71;75.27;99288.06;5065828;28;20533;-69
2021/08/08 09:27:11;;;;;;;13.30;7.70;;;;;;;17.70;76.04;99291.59;5065839;28;20089;-69
2021/08/08 09:29:40;;;;;;;9.77;6.15;;;;;;;17.59;76.80;99295.69;5065703;28;20104;-69
2021/08/08 09:32:06;;;;;;;9.18;4.72;;;;;;;17.42;76.78;99295.75;5064233;28;20043;-69
2021/08/08 09:34:38;;;;;;;8.35;4.47;;;;;;;17.18;76.76;99311.91;5065524;28;20393;-69
2021/08/08 09:37:14;;;;;;;;;;;;;;;16.94;76.80;99302.63;5065633;28;20021;-61
2021/08/08 09:39:43;;;;;;;11.30;4.07;;;;;;;16.72;77.81;99306.34;5065134;28;20178;-62
2021/08/08 09:42:23;;;;;;;8.40;4.05;;;;;;;16.59;78.43;99306.16;5065437;28;20305;-63
2021/08/08 09:45:07;;;;;;;7.90;3.80;;;;;;;16.48;78.75;99298.00;5065378;28;20025;-62
2021/08/08 09:47:53;;;;;;;5.38;3.28;;;;;;;16.44;78.92;99299.06;5065264;28;20013;-61
2021/08/08 09:50:23;;;;;;;4.90;3.08;;;;;;;16.28;78.58;99315.56;5065214;28;20024;-63
2021/08/08 09:52:50;;;;;;;5.05;3.10;;;;;;;16.23;79.31;99328.03;5065119;28;20021;-62
2021/08/08 09:55:42;;;;;;;5.80;2.90;;;;;;;16.20;79.39;99322.94;5065194;28;20086;-63
2021/08/08 09:58:10;;;;;;;7.60;3.45;;;;;;;16.33;80.33;99318.78;5061773;28;20344;-62
2021/08/08 10:00:39;;;;;;;6.03;3.17;;;;;;;16.47;80.37;99314.63;5065110;28;20021;-61
2021/08/08 10:03:06;;;;;;;4.53;3.72;;;;;;;16.63;80.72;99322.53;5065111;28;20061;-62
2021/08/08 10:05:34;;;;;;;5.38;2.97;;;;;;;16.89;80.64;99320.38;5065058;28;20389;-62
2021/08/08 10:08:07;;;;;;;4.95;2.85;;;;;;;17.13;80.57;99329.66;5065008;28;20025;-62
2021/08/08 10:10:34;;;;;;;7.43;3.00;;;;;;;17.32;80.56;99334.75;5064832;28;20071;-62
2021/08/08 10:13:21;;;;;;;5.18;3.08;;;;;;;17.50;80.74;99329.44;5064609;28;20090;-62
2021/08/08 10:15:50;;;;;;;4.47;2.78;;;;;;;17.54;79.53;99328.38;5064804;28;20021;-63
2021/08/08 10:18:17;;;;;;;3.22;2.72;;;;;;;17.48;78.48;99323.47;5064756;28;20307;-63
2021/08/08 10:20:43;;;;;;;4.78;2.13;;;;;;;17.30;78.50;99326.97;5064839;28;20028;-64
2021/08/08 10:23:17;;;;;;;3.47;2.13;;;;;;;17.28;79.21;99334.09;5064797;28;20021;-63
2021/08/08 10:25:45;;;;;;;5.78;2.95;;;;;;;17.18;78.90;99330.25;5064381;28;20100;-63
2021/08/08 10:28:11;;;;;;;3.60;2.83;;;;;;;17.15;78.51;99333.06;5064513;28;20275;-63
2021/08/08 10:30:37;;;;;;;6.25;2.35;;;;;;;17.05;77.62;99332.66;5063152;28;20078;-67
2021/08/08 10:33:05;;;;;;;6.93;2.60;;;;;;;16.87;77.07;99342.34;5063214;28;20571;-63
2021/08/08 10:35:41;;;;;;;6.00;3.28;;;;;;;16.78;78.26;99339.28;5064484;28;20094;-63
2021/08/08 10:38:07;;;;;;;3.83;2.15;;;;;;;16.94;79.58;99325.38;5062823;28;20044;-63
2021/08/08 10:40:36;;;;;;;5.32;2.25;;;;;;;17.29;80.37;99332.31;5064224;28;20044;-64
2021/08/08 10:43:02;;;;;;;5.68;2.90;;;;;;;17.64;79.57;99323.44;5064115;28;20025;-68
2021/08/08 10:45:30;;;;;;;5.95;2.65;;;;;;;17.70;78.50;99328.34;5064339;28;20028;-68
2021/08/08 10:47:59;;;;;;;7.45;2.20;;;;;;;17.76;78.75;99330.66;5064059;28;20493;-73
2021/08/08 10:50:41;;;;;;;7.45;2.28;;;;;;;17.82;79.33;99330.31;5064177;28;20021;-69
2021/08/08 10:53:20;;;;;;;3.72;2.60;;;;;;;17.88;79.43;99325.63;5064268;28;20032;-67
2021/08/08 10:55:46;;;;;;;3.65;2.10;;;;;;;17.92;79.14;99319.28;5062651;28;20060;-71
2021/08/08 10:58:16;;;;;;;6.50;2.63;;;;;;;18.01;78.44;99329.25;5063755;28;20071;-68
2021/08/08 11:00:43;;;;;;;3.03;1.80;;;;;;;17.99;77.60;99325.03;5063870;28;20114;-70
2021/08/08 11:03:32;;;;;;;2.47;1.80;;;;;;;18.01;78.30;99326.63;5063895;28;20024;-73
2021/08/08 11:05:58;;;;;;;3.78;2.60;;;;;;;18.07;77.59;99322.78;5062630;28;20049;-72
2021/08/08 11:08:24;;;;;;;5.78;2.10;;;;;;;18.19;77.49;99329.16;5063746;28;20086;-74
2021/08/08 11:10:49;;;;;;;6.60;1.80;;;;;;;18.28;77.85;99331.25;5064089;28;20424;-75
2021/08/08 11:13:20;;;;;;;4.43;1.75;;;;;;;18.56;78.25;99328.81;5063505;28;20198;-73
2021/08/08 11:15:46;;;;;;;2.78;2.05;;;;;;;18.94;77.27;99330.91;5063737;28;20025;-74
2021/08/08 11:18:13;;;;;;;4.13;1.92;;;;;;;19.26;77.16;99335.16;5063802;28;20029;-70
2021/08/08 11:20:38;;;;;;;3.95;2.00;;;;;;;19.49;76.06;99343.38;5063804;28;20388;-72
2021/08/08 11:23:04;;;;;;;3.63;2.03;;;;;;;19.63;74.62;99336.41;5063528;28;20055;-68
2021/08/08 11:25:41;;;;;;;6.80;2.60;;;;;;;19.62;75.05;99337.34;5063250;28;20025;-68
2021/08/08 11:28:07;;;;;;;4.47;2.65;;;;;;;19.76;74.44;99334.66;5063436;28;20021;-73
2021/08/08 11:30:45;;;;;;;4.97;2.08;;;;;;;20.01;74.39;99333.09;5063410;28;20059;-69
2021/08/08 11:33:13;;;;;;;3.17;1.67;;;;;;;20.21;73.74;99336.22;5063440;28;20025;-72